sensor_id;sensor_type;location;lat;lon;timestamp;P1;durP1;ratioP1;P2;durP2;ratioP2
36391;SDS011;22639;42.690;23.356;2023-05-19T00:00:29;10.67;;;7.73;;
36391;SDS011;22639;42.690;23.356;2023-05-19T00:02:55;17.43;;;7.77;;
36391;SDS011;22639;42.690;23.356;2023-05-19T00:05:20;9.60;;;6.80;;
36391;SDS011;22639;42.690;23.356;2023-05-19T00:07:47;9.70;;;7.30;;
36391;SDS011;22639;42.690;23.356;2023-05-19T00:10:13;9.60;;;7.57;;
36391;SDS011;22639;42.690;23.356;2023-05-19T00:12:39;10.60;;;7.67;;
36391;SDS011;22639;42.690;23.356;2023-05-19T00:15:05;10.33;;;7.30;;
36391;SDS011;22639;42.690;23.356;2023-05-19T00:17:30;11.83;;;7.90;;
36391;SDS011;22639;42.690;23.356;2023-05-19T00:19:58;9.67;;;7.33;;
36391;SDS011;22639;42.690;23.356;2023-05-19T00:22:23;9.30;;;6.90;;
36391;SDS011;22639;42.690;23.356;2023-05-19T00:24:48;12.97;;;7.83;;
36391;SDS011;22639;42.690;23.356;2023-05-19T00:27:14;8.97;;;6.40;;
36391;SDS011;22639;42.690;23.356;2023-05-19T00:29:39;7.83;;;5.83;;
36391;SDS011;22639;42.690;23.356;2023-05-19T00:32:04;10.47;;;7.63;;
36391;SDS011;22639;42.690;23.356;2023-05-19T00:34:29;9.77;;;7.73;;
36391;SDS011;22639;42.690;23.356;2023-05-19T00:36:55;11.33;;;7.30;;
36391;SDS011;22639;42.690;23.356;2023-05-19T00:39:20;6.93;;;5.60;;
36391;SDS011;22639;42.690;23.356;2023-05-19T00:41:45;10.23;;;6.87;;
36391;SDS011;22639;42.690;23.356;2023-05-19T00:44:10;10.53;;;7.43;;
36391;SDS011;22639;42.690;23.356;2023-05-19T00:46:36;8.60;;;7.50;;
36391;SDS011;22639;42.690;23.356;2023-05-19T00:49:01;10.10;;;6.63;;
36391;SDS011;22639;42.690;23.356;2023-05-19T00:51:28;8.43;;;7.07;;
36391;SDS011;22639;42.690;23.356;2023-05-19T00:53:55;9.80;;;7.43;;
36391;SDS011;22639;42.690;23.356;2023-05-19T00:56:20;10.13;;;7.60;;
36391;SDS011;22639;42.690;23.356;2023-05-19T00:58:46;8.77;;;6.63;;
36391;SDS011;22639;42.690;23.356;2023-05-19T01:01:12;9.87;;;7.37;;
36391;SDS011;22639;42.690;23.356;2023-05-19T01:03:38;11.27;;;7.47;;
36391;SDS011;22639;42.690;23.356;2023-05-19T01:06:04;11.40;;;8.10;;
36391;SDS011;22639;42.690;23.356;2023-05-19T01:08:31;10.10;;;8.07;;
36391;SDS011;22639;42.690;23.356;2023-05-19T01:10:56;11.00;;;7.70;;
36391;SDS011;22639;42.690;23.356;2023-05-19T01:13:22;13.77;;;9.30;;
36391;SDS011;22639;42.690;23.356;2023-05-19T01:18:17;16.27;;;7.83;;
36391;SDS011;22639;42.690;23.356;2023-05-19T01:20:50;11.70;;;9.37;;
36391;SDS011;22639;42.690;23.356;2023-05-19T01:30:54;12.30;;;9.33;;
36391;SDS011;22639;42.690;23.356;2023-05-19T01:33:20;12.43;;;9.17;;
36391;SDS011;22639;42.690;23.356;2023-05-19T01:35:46;14.80;;;10.03;;
36391;SDS011;22639;42.690;23.356;2023-05-19T01:38:12;14.47;;;10.23;;
36391;SDS011;22639;42.690;23.356;2023-05-19T01:40:40;13.97;;;10.83;;
36391;SDS011;22639;42.690;23.356;2023-05-19T01:43:06;14.80;;;11.40;;
36391;SDS011;22639;42.690;23.356;2023-05-19T01:45:33;16.40;;;11.13;;
36391;SDS011;22639;42.690;23.356;2023-05-19T01:47:59;17.20;;;11.50;;
36391;SDS011;22639;42.690;23.356;2023-05-19T01:50:25;15.23;;;10.33;;
36391;SDS011;22639;42.690;23.356;2023-05-19T01:52:50;17.50;;;11.23;;
36391;SDS011;22639;42.690;23.356;2023-05-19T01:55:16;15.33;;;11.10;;
36391;SDS011;22639;42.690;23.356;2023-05-19T02:04:59;18.97;;;11.13;;
36391;SDS011;22639;42.690;23.356;2023-05-19T02:07:36;13.37;;;9.43;;
36391;SDS011;22639;42.690;23.356;2023-05-19T02:10:06;14.03;;;10.30;;
36391;SDS011;22639;42.690;23.356;2023-05-19T02:12:35;15.13;;;10.60;;
36391;SDS011;22639;42.690;23.356;2023-05-19T02:17:29;14.07;;;9.70;;
36391;SDS011;22639;42.690;23.356;2023-05-19T02:20:00;15.37;;;9.77;;
36391;SDS011;22639;42.690;23.356;2023-05-19T02:22:25;19.23;;;11.00;;
36391;SDS011;22639;42.690;23.356;2023-05-19T02:24:50;17.27;;;9.80;;
36391;SDS011;22639;42.690;23.356;2023-05-19T02:27:16;17.13;;;11.53;;
36391;SDS011;22639;42.690;23.356;2023-05-19T02:29:41;17.03;;;10.10;;
36391;SDS011;22639;42.690;23.356;2023-05-19T02:32:06;15.20;;;9.90;;
36391;SDS011;22639;42.690;23.356;2023-05-19T02:34:32;23.43;;;11.40;;
36391;SDS011;22639;42.690;23.356;2023-05-19T02:36:57;17.13;;;10.77;;
36391;SDS011;22639;42.690;23.356;2023-05-19T02:39:22;15.27;;;10.80;;
36391;SDS011;22639;42.690;23.356;2023-05-19T02:41:48;16.00;;;10.30;;
36391;SDS011;22639;42.690;23.356;2023-05-19T02:44:13;19.43;;;12.13;;
36391;SDS011;22639;42.690;23.356;2023-05-19T02:46:38;17.27;;;10.80;;
36391;SDS011;22639;42.690;23.356;2023-05-19T02:49:03;17.37;;;11.37;;
36391;SDS011;22639;42.690;23.356;2023-05-19T02:51:28;19.33;;;12.43;;
36391;SDS011;22639;42.690;23.356;2023-05-19T02:53:54;21.43;;;12.80;;
36391;SDS011;22639;42.690;23.356;2023-05-19T02:56:19;15.17;;;9.80;;
36391;SDS011;22639;42.690;23.356;2023-05-19T02:58:45;18.30;;;12.20;;
36391;SDS011;22639;42.690;23.356;2023-05-19T03:01:10;17.40;;;12.17;;
36391;SDS011;22639;42.690;23.356;2023-05-19T03:03:36;15.63;;;11.33;;
36391;SDS011;22639;42.690;23.356;2023-05-19T03:06:01;20.97;;;12.23;;
36391;SDS011;22639;42.690;23.356;2023-05-19T03:08:26;18.10;;;12.37;;
36391;SDS011;22639;42.690;23.356;2023-05-19T03:10:52;18.13;;;12.40;;
36391;SDS011;22639;42.690;23.356;2023-05-19T03:13:17;18.13;;;11.40;;
36391;SDS011;22639;42.690;23.356;2023-05-19T03:15:42;18.27;;;11.87;;
36391;SDS011;22639;42.690;23.356;2023-05-19T03:18:08;17.33;;;11.87;;
36391;SDS011;22639;42.690;23.356;2023-05-19T03:20:35;19.93;;;11.83;;
36391;SDS011;22639;42.690;23.356;2023-05-19T03:23:01;16.70;;;12.13;;
36391;SDS011;22639;42.690;23.356;2023-05-19T03:25:27;18.53;;;12.73;;
36391;SDS011;22639;42.690;23.356;2023-05-19T03:27:52;19.80;;;12.43;;
36391;SDS011;22639;42.690;23.356;2023-05-19T03:30:17;19.27;;;12.30;;
36391;SDS011;22639;42.690;23.356;2023-05-19T03:32:43;19.53;;;13.13;;
36391;SDS011;22639;42.690;23.356;2023-05-19T03:35:08;17.50;;;12.57;;
36391;SDS011;22639;42.690;23.356;2023-05-19T03:37:33;19.53;;;12.63;;
36391;SDS011;22639;42.690;23.356;2023-05-19T03:39:59;19.37;;;12.93;;
36391;SDS011;22639;42.690;23.356;2023-05-19T03:42:24;18.60;;;12.87;;
36391;SDS011;22639;42.690;23.356;2023-05-19T03:44:49;19.17;;;13.10;;
36391;SDS011;22639;42.690;23.356;2023-05-19T03:47:14;14.90;;;11.13;;
36391;SDS011;22639;42.690;23.356;2023-05-19T03:49:40;15.40;;;11.43;;
36391;SDS011;22639;42.690;23.356;2023-05-19T03:52:05;17.58;;;12.18;;
36391;SDS011;22639;42.690;23.356;2023-05-19T03:54:30;16.17;;;11.98;;
36391;SDS011;22639;42.690;23.356;2023-05-19T03:56:56;15.80;;;10.35;;
36391;SDS011;22639;42.690;23.356;2023-05-19T03:59:21;15.35;;;12.02;;
36391;SDS011;22639;42.690;23.356;2023-05-19T04:01:47;14.50;;;10.55;;
36391;SDS011;22639;42.690;23.356;2023-05-19T04:04:12;14.95;;;10.60;;
36391;SDS011;22639;42.690;23.356;2023-05-19T04:06:38;12.45;;;9.88;;
36391;SDS011;22639;42.690;23.356;2023-05-19T04:09:09;14.70;;;10.60;;
36391;SDS011;22639;42.690;23.356;2023-05-19T04:11:35;12.38;;;9.45;;
36391;SDS011;22639;42.690;23.356;2023-05-19T04:14:01;12.07;;;9.88;;
36391;SDS011;22639;42.690;23.356;2023-05-19T04:16:26;9.60;;;8.57;;
36391;SDS011;22639;42.690;23.356;2023-05-19T04:18:51;11.48;;;9.07;;
36391;SDS011;22639;42.690;23.356;2023-05-19T04:21:16;13.52;;;9.93;;
36391;SDS011;22639;42.690;23.356;2023-05-19T04:23:42;11.00;;;9.70;;
36391;SDS011;22639;42.690;23.356;2023-05-19T04:26:07;10.40;;;8.93;;
36391;SDS011;22639;42.690;23.356;2023-05-19T04:28:32;13.63;;;10.00;;
36391;SDS011;22639;42.690;23.356;2023-05-19T04:31:00;10.75;;;9.35;;
36391;SDS011;22639;42.690;23.356;2023-05-19T04:33:25;10.07;;;7.78;;
36391;SDS011;22639;42.690;23.356;2023-05-19T04:35:53;10.68;;;9.52;;
36391;SDS011;22639;42.690;23.356;2023-05-19T04:38:18;11.30;;;8.32;;
36391;SDS011;22639;42.690;23.356;2023-05-19T04:40:44;12.48;;;9.25;;
36391;SDS011;22639;42.690;23.356;2023-05-19T04:43:09;15.60;;;9.43;;
36391;SDS011;22639;42.690;23.356;2023-05-19T04:45:35;12.88;;;9.13;;
36391;SDS011;22639;42.690;23.356;2023-05-19T04:48:01;11.30;;;9.40;;
36391;SDS011;22639;42.690;23.356;2023-05-19T04:50:26;11.30;;;9.32;;
36391;SDS011;22639;42.690;23.356;2023-05-19T04:52:53;12.82;;;9.80;;
36391;SDS011;22639;42.690;23.356;2023-05-19T04:55:18;11.35;;;8.45;;
36391;SDS011;22639;42.690;23.356;2023-05-19T04:57:44;10.15;;;9.13;;
36391;SDS011;22639;42.690;23.356;2023-05-19T05:00:09;13.50;;;9.45;;
36391;SDS011;22639;42.690;23.356;2023-05-19T05:02:38;10.45;;;9.00;;
36391;SDS011;22639;42.690;23.356;2023-05-19T05:05:03;9.98;;;8.95;;
36391;SDS011;22639;42.690;23.356;2023-05-19T05:07:29;10.85;;;7.32;;
36391;SDS011;22639;42.690;23.356;2023-05-19T05:09:54;14.40;;;8.75;;
36391;SDS011;22639;42.690;23.356;2023-05-19T05:12:21;10.98;;;8.88;;
36391;SDS011;22639;42.690;23.356;2023-05-19T05:14:47;9.63;;;8.40;;
36391;SDS011;22639;42.690;23.356;2023-05-19T05:17:12;12.98;;;8.85;;
36391;SDS011;22639;42.690;23.356;2023-05-19T05:19:38;8.55;;;7.38;;
36391;SDS011;22639;42.690;23.356;2023-05-19T05:22:03;14.00;;;9.75;;
36391;SDS011;22639;42.690;23.356;2023-05-19T05:24:30;11.02;;;8.80;;
36391;SDS011;22639;42.690;23.356;2023-05-19T05:26:56;11.80;;;8.32;;
36391;SDS011;22639;42.690;23.356;2023-05-19T05:29:21;14.50;;;8.38;;
36391;SDS011;22639;42.690;23.356;2023-05-19T05:31:46;10.30;;;8.73;;
36391;SDS011;22639;42.690;23.356;2023-05-19T05:34:11;8.98;;;8.07;;
36391;SDS011;22639;42.690;23.356;2023-05-19T05:36:39;11.25;;;8.60;;
36391;SDS011;22639;42.690;23.356;2023-05-19T05:39:06;10.13;;;8.77;;
36391;SDS011;22639;42.690;23.356;2023-05-19T05:41:32;8.68;;;7.68;;
36391;SDS011;22639;42.690;23.356;2023-05-19T05:44:02;11.00;;;8.50;;
36391;SDS011;22639;42.690;23.356;2023-05-19T05:46:27;10.48;;;8.60;;
36391;SDS011;22639;42.690;23.356;2023-05-19T05:48:52;11.07;;;7.40;;
36391;SDS011;22639;42.690;23.356;2023-05-19T05:51:20;9.85;;;8.80;;
36391;SDS011;22639;42.690;23.356;2023-05-19T05:53:48;11.60;;;8.75;;
36391;SDS011;22639;42.690;23.356;2023-05-19T05:56:15;9.32;;;8.38;;
36391;SDS011;22639;42.690;23.356;2023-05-19T05:58:41;9.77;;;8.27;;
36391;SDS011;22639;42.690;23.356;2023-05-19T06:01:06;9.48;;;7.53;;
36391;SDS011;22639;42.690;23.356;2023-05-19T06:03:39;9.82;;;7.85;;
36391;SDS011;22639;42.690;23.356;2023-05-19T06:06:04;8.55;;;6.97;;
36391;SDS011;22639;42.690;23.356;2023-05-19T06:08:30;8.68;;;7.30;;
36391;SDS011;22639;42.690;23.356;2023-05-19T06:10:55;7.47;;;6.72;;
36391;SDS011;22639;42.690;23.356;2023-05-19T06:13:22;9.63;;;7.78;;
36391;SDS011;22639;42.690;23.356;2023-05-19T06:15:48;9.98;;;7.82;;
36391;SDS011;22639;42.690;23.356;2023-05-19T06:18:13;8.93;;;7.07;;
36391;SDS011;22639;42.690;23.356;2023-05-19T06:20:38;11.00;;;6.75;;
36391;SDS011;22639;42.690;23.356;2023-05-19T06:23:03;8.32;;;6.72;;
36391;SDS011;22639;42.690;23.356;2023-05-19T06:25:29;8.93;;;8.07;;
36391;SDS011;22639;42.690;23.356;2023-05-19T06:27:54;9.00;;;7.38;;
36391;SDS011;22639;42.690;23.356;2023-05-19T06:30:19;10.25;;;7.45;;
36391;SDS011;22639;42.690;23.356;2023-05-19T06:32:44;9.70;;;6.63;;
36391;SDS011;22639;42.690;23.356;2023-05-19T06:35:10;6.53;;;5.93;;
36391;SDS011;22639;42.690;23.356;2023-05-19T06:37:35;12.13;;;6.65;;
36391;SDS011;22639;42.690;23.356;2023-05-19T06:40:00;7.68;;;6.13;;
36391;SDS011;22639;42.690;23.356;2023-05-19T06:42:25;5.63;;;5.07;;
36391;SDS011;22639;42.690;23.356;2023-05-19T06:44:51;5.72;;;5.13;;
36391;SDS011;22639;42.690;23.356;2023-05-19T06:47:17;6.55;;;5.70;;
36391;SDS011;22639;42.690;23.356;2023-05-19T06:49:45;8.18;;;6.35;;
36391;SDS011;22639;42.690;23.356;2023-05-19T06:52:10;7.75;;;6.43;;
36391;SDS011;22639;42.690;23.356;2023-05-19T06:54:36;9.27;;;5.65;;
36391;SDS011;22639;42.690;23.356;2023-05-19T06:57:01;6.38;;;5.78;;
36391;SDS011;22639;42.690;23.356;2023-05-19T06:59:26;9.02;;;6.13;;
36391;SDS011;22639;42.690;23.356;2023-05-19T07:01:51;6.57;;;5.97;;
36391;SDS011;22639;42.690;23.356;2023-05-19T07:04:17;7.47;;;5.35;;
36391;SDS011;22639;42.690;23.356;2023-05-19T07:06:42;6.53;;;5.90;;
36391;SDS011;22639;42.690;23.356;2023-05-19T07:09:07;6.38;;;5.22;;
36391;SDS011;22639;42.690;23.356;2023-05-19T07:11:33;6.63;;;5.80;;
36391;SDS011;22639;42.690;23.356;2023-05-19T07:13:58;6.30;;;5.20;;
36391;SDS011;22639;42.690;23.356;2023-05-19T07:16:23;7.30;;;5.03;;
36391;SDS011;22639;42.690;23.356;2023-05-19T07:18:48;5.60;;;5.10;;
36391;SDS011;22639;42.690;23.356;2023-05-19T07:21:13;6.97;;;5.90;;
36391;SDS011;22639;42.690;23.356;2023-05-19T07:23:39;6.17;;;5.57;;
36391;SDS011;22639;42.690;23.356;2023-05-19T07:26:04;5.53;;;4.90;;
36391;SDS011;22639;42.690;23.356;2023-05-19T07:28:29;6.68;;;5.28;;
36391;SDS011;22639;42.690;23.356;2023-05-19T07:30:55;6.00;;;5.38;;
36391;SDS011;22639;42.690;23.356;2023-05-19T07:33:20;8.68;;;5.38;;
36391;SDS011;22639;42.690;23.356;2023-05-19T07:35:45;6.40;;;5.80;;
36391;SDS011;22639;42.690;23.356;2023-05-19T07:38:11;6.50;;;5.85;;
36391;SDS011;22639;42.690;23.356;2023-05-19T07:40:36;6.95;;;6.22;;
36391;SDS011;22639;42.690;23.356;2023-05-19T07:43:01;5.95;;;5.35;;
36391;SDS011;22639;42.690;23.356;2023-05-19T07:45:27;6.78;;;6.18;;
36391;SDS011;22639;42.690;23.356;2023-05-19T07:47:52;12.27;;;5.75;;
36391;SDS011;22639;42.690;23.356;2023-05-19T07:50:17;6.45;;;5.85;;
36391;SDS011;22639;42.690;23.356;2023-05-19T07:52:43;6.20;;;5.43;;
36391;SDS011;22639;42.690;23.356;2023-05-19T07:55:08;6.45;;;5.82;;
36391;SDS011;22639;42.690;23.356;2023-05-19T07:57:33;6.88;;;6.28;;
36391;SDS011;22639;42.690;23.356;2023-05-19T07:59:58;7.10;;;6.50;;
36391;SDS011;22639;42.690;23.356;2023-05-19T08:02:24;6.97;;;6.13;;
36391;SDS011;22639;42.690;23.356;2023-05-19T08:04:49;9.65;;;6.47;;
36391;SDS011;22639;42.690;23.356;2023-05-19T08:07:14;6.45;;;5.85;;
36391;SDS011;22639;42.690;23.356;2023-05-19T08:09:40;10.52;;;7.13;;
36391;SDS011;22639;42.690;23.356;2023-05-19T08:12:05;11.83;;;6.50;;
36391;SDS011;22639;42.690;23.356;2023-05-19T08:14:30;8.55;;;6.95;;
36391;SDS011;22639;42.690;23.356;2023-05-19T08:16:57;7.63;;;6.93;;
36391;SDS011;22639;42.690;23.356;2023-05-19T08:19:22;7.63;;;6.65;;
36391;SDS011;22639;42.690;23.356;2023-05-19T08:21:47;7.53;;;6.80;;
36391;SDS011;22639;42.690;23.356;2023-05-19T08:24:13;10.93;;;7.18;;
36391;SDS011;22639;42.690;23.356;2023-05-19T08:26:39;7.72;;;7.03;;
36391;SDS011;22639;42.690;23.356;2023-05-19T08:29:04;10.40;;;7.32;;
36391;SDS011;22639;42.690;23.356;2023-05-19T08:31:29;7.80;;;6.65;;
36391;SDS011;22639;42.690;23.356;2023-05-19T08:33:55;7.70;;;6.90;;
36391;SDS011;22639;42.690;23.356;2023-05-19T08:36:20;8.00;;;7.25;;
36391;SDS011;22639;42.690;23.356;2023-05-19T08:38:46;9.07;;;6.93;;
36391;SDS011;22639;42.690;23.356;2023-05-19T08:41:11;8.35;;;7.55;;
36391;SDS011;22639;42.690;23.356;2023-05-19T08:43:36;8.40;;;7.15;;
36391;SDS011;22639;42.690;23.356;2023-05-19T08:46:03;8.75;;;7.35;;
36391;SDS011;22639;42.690;23.356;2023-05-19T08:48:30;8.27;;;7.47;;
36391;SDS011;22639;42.690;23.356;2023-05-19T08:51:40;8.95;;;7.60;;
36391;SDS011;22639;42.690;23.356;2023-05-19T08:53:52;10.93;;;8.20;;
36391;SDS011;22639;42.690;23.356;2023-05-19T08:56:22;8.00;;;7.03;;
36391;SDS011;22639;42.690;23.356;2023-05-19T08:58:49;13.90;;;7.35;;
36391;SDS011;22639;42.690;23.356;2023-05-19T09:01:14;8.85;;;7.75;;
36391;SDS011;22639;42.690;23.356;2023-05-19T09:03:43;9.20;;;8.05;;
36391;SDS011;22639;42.690;23.356;2023-05-19T09:06:09;9.02;;;7.43;;
36391;SDS011;22639;42.690;23.356;2023-05-19T09:08:36;8.35;;;7.45;;
36391;SDS011;22639;42.690;23.356;2023-05-19T09:11:01;8.95;;;7.68;;
36391;SDS011;22639;42.690;23.356;2023-05-19T09:13:27;8.45;;;7.65;;
36391;SDS011;22639;42.690;23.356;2023-05-19T09:15:53;7.88;;;7.07;;
36391;SDS011;22639;42.690;23.356;2023-05-19T09:18:20;9.40;;;7.18;;
36391;SDS011;22639;42.690;23.356;2023-05-19T09:20:45;10.10;;;8.35;;
36391;SDS011;22639;42.690;23.356;2023-05-19T09:23:14;8.85;;;7.95;;
36391;SDS011;22639;42.690;23.356;2023-05-19T09:28:11;12.73;;;7.95;;
36391;SDS011;22639;42.690;23.356;2023-05-19T09:30:36;9.25;;;8.27;;
36391;SDS011;22639;42.690;23.356;2023-05-19T09:33:01;8.20;;;7.40;;
36391;SDS011;22639;42.690;23.356;2023-05-19T09:35:28;9.25;;;8.32;;
36391;SDS011;22639;42.690;23.356;2023-05-19T09:37:53;8.32;;;7.53;;
36391;SDS011;22639;42.690;23.356;2023-05-19T09:40:19;9.07;;;8.23;;
36391;SDS011;22639;42.690;23.356;2023-05-19T09:42:44;8.15;;;7.35;;
36391;SDS011;22639;42.690;23.356;2023-05-19T09:45:09;10.95;;;8.20;;
36391;SDS011;22639;42.690;23.356;2023-05-19T09:47:36;9.43;;;8.43;;
36391;SDS011;22639;42.690;23.356;2023-05-19T09:50:04;8.95;;;8.05;;
36391;SDS011;22639;42.690;23.356;2023-05-19T09:52:30;9.20;;;7.95;;
36391;SDS011;22639;42.690;23.356;2023-05-19T09:54:55;11.18;;;8.95;;
36391;SDS011;22639;42.690;23.356;2023-05-19T09:57:24;10.18;;;8.77;;
36391;SDS011;22639;42.690;23.356;2023-05-19T09:59:51;9.65;;;8.65;;
36391;SDS011;22639;42.690;23.356;2023-05-19T10:02:17;8.85;;;7.65;;
36391;SDS011;22639;42.690;23.356;2023-05-19T10:04:45;9.68;;;8.10;;
36391;SDS011;22639;42.690;23.356;2023-05-19T10:07:11;9.35;;;8.45;;
36391;SDS011;22639;42.690;23.356;2023-05-19T10:09:38;9.13;;;8.20;;
36391;SDS011;22639;42.690;23.356;2023-05-19T10:12:06;8.27;;;7.57;;
36391;SDS011;22639;42.690;23.356;2023-05-19T10:14:33;9.15;;;8.25;;
36391;SDS011;22639;42.690;23.356;2023-05-19T10:16:58;9.63;;;7.85;;
36391;SDS011;22639;42.690;23.356;2023-05-19T10:19:24;9.40;;;8.45;;
36391;SDS011;22639;42.690;23.356;2023-05-19T10:21:50;8.77;;;7.93;;
36391;SDS011;22639;42.690;23.356;2023-05-19T10:24:16;9.43;;;8.23;;
36391;SDS011;22639;42.690;23.356;2023-05-19T10:26:43;10.45;;;8.15;;
36391;SDS011;22639;42.690;23.356;2023-05-19T10:29:08;9.13;;;7.75;;
36391;SDS011;22639;42.690;23.356;2023-05-19T10:31:35;8.68;;;7.88;;
36391;SDS011;22639;42.690;23.356;2023-05-19T10:34:11;8.23;;;7.43;;
36391;SDS011;22639;42.690;23.356;2023-05-19T10:36:42;9.70;;;8.73;;
36391;SDS011;22639;42.690;23.356;2023-05-19T10:39:32;11.13;;;7.60;;
36391;SDS011;22639;42.690;23.356;2023-05-19T10:47:05;9.43;;;8.50;;
36391;SDS011;22639;42.690;23.356;2023-05-19T10:49:35;9.95;;;8.43;;
36391;SDS011;22639;42.690;23.356;2023-05-19T10:52:00;11.98;;;9.45;;
36391;SDS011;22639;42.690;23.356;2023-05-19T10:54:38;8.43;;;7.57;;
36391;SDS011;22639;42.690;23.356;2023-05-19T10:57:04;8.68;;;7.75;;
36391;SDS011;22639;42.690;23.356;2023-05-19T10:59:31;9.38;;;7.70;;
36391;SDS011;22639;42.690;23.356;2023-05-19T11:05:10;9.25;;;7.32;;
36391;SDS011;22639;42.690;23.356;2023-05-19T11:07:37;9.07;;;7.80;;
36391;SDS011;22639;42.690;23.356;2023-05-19T11:10:05;8.45;;;7.65;;
36391;SDS011;22639;42.690;23.356;2023-05-19T11:12:38;9.65;;;7.90;;
36391;SDS011;22639;42.690;23.356;2023-05-19T11:15:03;9.45;;;8.40;;
36391;SDS011;22639;42.690;23.356;2023-05-19T11:17:29;8.57;;;7.68;;
36391;SDS011;22639;42.690;23.356;2023-05-19T11:19:55;8.63;;;7.82;;
36391;SDS011;22639;42.690;23.356;2023-05-19T11:22:25;8.82;;;7.22;;
36391;SDS011;22639;42.690;23.356;2023-05-19T11:24:52;8.02;;;7.28;;
36391;SDS011;22639;42.690;23.356;2023-05-19T11:27:28;7.28;;;6.47;;
36391;SDS011;22639;42.690;23.356;2023-05-19T11:29:55;8.43;;;7.53;;
36391;SDS011;22639;42.690;23.356;2023-05-19T11:32:21;11.25;;;7.63;;
36391;SDS011;22639;42.690;23.356;2023-05-19T11:34:49;9.48;;;8.32;;
36391;SDS011;22639;42.690;23.356;2023-05-19T11:37:15;8.43;;;7.47;;
36391;SDS011;22639;42.690;23.356;2023-05-19T11:39:40;8.95;;;8.07;;
36391;SDS011;22639;42.690;23.356;2023-05-19T11:42:07;12.02;;;9.02;;
36391;SDS011;22639;42.690;23.356;2023-05-19T11:44:32;15.65;;;9.55;;
36391;SDS011;22639;42.690;23.356;2023-05-19T11:46:58;11.82;;;10.38;;
36391;SDS011;22639;42.690;23.356;2023-05-19T11:49:23;14.00;;;10.48;;
36391;SDS011;22639;42.690;23.356;2023-05-19T11:51:48;15.82;;;11.07;;
36391;SDS011;22639;42.690;23.356;2023-05-19T11:54:14;12.88;;;10.27;;
36391;SDS011;22639;42.690;23.356;2023-05-19T11:56:42;15.98;;;10.85;;
36391;SDS011;22639;42.690;23.356;2023-05-19T11:59:08;12.00;;;9.60;;
36391;SDS011;22639;42.690;23.356;2023-05-19T12:01:33;14.02;;;10.57;;
36391;SDS011;22639;42.690;23.356;2023-05-19T12:03:59;13.07;;;9.05;;
36391;SDS011;22639;42.690;23.356;2023-05-19T12:06:25;12.35;;;8.85;;
36391;SDS011;22639;42.690;23.356;2023-05-19T12:08:50;7.10;;;5.53;;
36391;SDS011;22639;42.690;23.356;2023-05-19T12:11:15;8.27;;;6.45;;
36391;SDS011;22639;42.690;23.356;2023-05-19T12:13:41;6.00;;;5.35;;
36391;SDS011;22639;42.690;23.356;2023-05-19T12:16:07;6.85;;;5.53;;
36391;SDS011;22639;42.690;23.356;2023-05-19T12:18:35;8.90;;;5.70;;
36391;SDS011;22639;42.690;23.356;2023-05-19T12:21:00;8.30;;;5.57;;
36391;SDS011;22639;42.690;23.356;2023-05-19T12:23:26;7.40;;;5.65;;
36391;SDS011;22639;42.690;23.356;2023-05-19T12:25:54;7.22;;;5.00;;
36391;SDS011;22639;42.690;23.356;2023-05-19T12:28:20;7.93;;;5.55;;
36391;SDS011;22639;42.690;23.356;2023-05-19T12:30:46;6.22;;;5.63;;
36391;SDS011;22639;42.690;23.356;2023-05-19T12:33:11;7.10;;;5.93;;
36391;SDS011;22639;42.690;23.356;2023-05-19T12:35:38;7.90;;;5.82;;
36391;SDS011;22639;42.690;23.356;2023-05-19T12:38:04;8.10;;;5.43;;
36391;SDS011;22639;42.690;23.356;2023-05-19T12:40:30;7.65;;;5.85;;
36391;SDS011;22639;42.690;23.356;2023-05-19T12:42:57;6.32;;;5.25;;
36391;SDS011;22639;42.690;23.356;2023-05-19T12:45:23;5.85;;;5.18;;
36391;SDS011;22639;42.690;23.356;2023-05-19T12:47:50;7.82;;;5.95;;
36391;SDS011;22639;42.690;23.356;2023-05-19T12:50:16;6.43;;;5.57;;
36391;SDS011;22639;42.690;23.356;2023-05-19T12:52:43;6.57;;;5.43;;
36391;SDS011;22639;42.690;23.356;2023-05-19T12:55:08;6.65;;;5.82;;
36391;SDS011;22639;42.690;23.356;2023-05-19T12:57:36;7.05;;;5.43;;
36391;SDS011;22639;42.690;23.356;2023-05-19T13:02:52;6.97;;;6.20;;
36391;SDS011;22639;42.690;23.356;2023-05-19T13:05:18;7.57;;;5.97;;
36391;SDS011;22639;42.690;23.356;2023-05-19T13:10:18;7.55;;;6.32;;
36391;SDS011;22639;42.690;23.356;2023-05-19T13:12:44;9.20;;;6.25;;
36391;SDS011;22639;42.690;23.356;2023-05-19T13:15:09;7.80;;;6.35;;
36391;SDS011;22639;42.690;23.356;2023-05-19T13:17:34;6.60;;;5.63;;
36391;SDS011;22639;42.690;23.356;2023-05-19T13:20:00;8.23;;;5.57;;
36391;SDS011;22639;42.690;23.356;2023-05-19T13:22:26;8.55;;;6.20;;
36391;SDS011;22639;42.690;23.356;2023-05-19T13:24:51;9.07;;;5.63;;
36391;SDS011;22639;42.690;23.356;2023-05-19T13:27:17;7.57;;;6.20;;
36391;SDS011;22639;42.690;23.356;2023-05-19T13:29:42;9.77;;;6.18;;
36391;SDS011;22639;42.690;23.356;2023-05-19T13:32:07;7.60;;;6.28;;
36391;SDS011;22639;42.690;23.356;2023-05-19T13:34:32;7.47;;;5.72;;
36391;SDS011;22639;42.690;23.356;2023-05-19T13:36:57;6.47;;;5.63;;
36391;SDS011;22639;42.690;23.356;2023-05-19T13:39:23;6.82;;;5.38;;
36391;SDS011;22639;42.690;23.356;2023-05-19T13:41:48;5.78;;;5.28;;
36391;SDS011;22639;42.690;23.356;2023-05-19T13:44:13;9.20;;;6.10;;
36391;SDS011;22639;42.690;23.356;2023-05-19T13:46:38;8.15;;;5.57;;
36391;SDS011;22639;42.690;23.356;2023-05-19T13:49:04;7.90;;;5.88;;
36391;SDS011;22639;42.690;23.356;2023-05-19T13:51:29;6.22;;;5.63;;
36391;SDS011;22639;42.690;23.356;2023-05-19T13:53:54;7.90;;;6.07;;
36391;SDS011;22639;42.690;23.356;2023-05-19T13:56:19;7.65;;;6.03;;
36391;SDS011;22639;42.690;23.356;2023-05-19T13:58:45;9.07;;;6.68;;
36391;SDS011;22639;42.690;23.356;2023-05-19T14:01:10;8.02;;;6.53;;
36391;SDS011;22639;42.690;23.356;2023-05-19T14:03:35;8.07;;;6.88;;
36391;SDS011;22639;42.690;23.356;2023-05-19T14:06:01;8.13;;;6.55;;
36391;SDS011;22639;42.690;23.356;2023-05-19T14:08:26;7.53;;;6.72;;
36391;SDS011;22639;42.690;23.356;2023-05-19T14:10:53;6.93;;;6.22;;
36391;SDS011;22639;42.690;23.356;2023-05-19T14:13:18;9.68;;;6.28;;
36391;SDS011;22639;42.690;23.356;2023-05-19T14:15:44;7.75;;;6.65;;
36391;SDS011;22639;42.690;23.356;2023-05-19T14:18:09;8.63;;;6.57;;
36391;SDS011;22639;42.690;23.356;2023-05-19T14:20:35;9.82;;;6.43;;
36391;SDS011;22639;42.690;23.356;2023-05-19T14:23:00;8.65;;;6.28;;
36391;SDS011;22639;42.690;23.356;2023-05-19T14:25:25;8.85;;;7.72;;
36391;SDS011;22639;42.690;23.356;2023-05-19T14:27:51;8.20;;;5.90;;
36391;SDS011;22639;42.690;23.356;2023-05-19T14:30:16;7.97;;;6.45;;
36391;SDS011;22639;42.690;23.356;2023-05-19T14:32:41;7.07;;;6.38;;
36391;SDS011;22639;42.690;23.356;2023-05-19T14:35:06;6.97;;;6.28;;
36391;SDS011;22639;42.690;23.356;2023-05-19T14:37:32;9.27;;;6.40;;
36391;SDS011;22639;42.690;23.356;2023-05-19T14:39:57;8.55;;;6.32;;
36391;SDS011;22639;42.690;23.356;2023-05-19T14:42:22;7.45;;;6.57;;
36391;SDS011;22639;42.690;23.356;2023-05-19T14:44:48;8.25;;;5.82;;
36391;SDS011;22639;42.690;23.356;2023-05-19T14:47:13;7.65;;;6.60;;
36391;SDS011;22639;42.690;23.356;2023-05-19T14:49:38;7.47;;;6.55;;
36391;SDS011;22639;42.690;23.356;2023-05-19T14:52:03;8.05;;;5.82;;
36391;SDS011;22639;42.690;23.356;2023-05-19T14:54:29;9.18;;;6.63;;